Time;durP1;ratioP1;P1;durP2;ratioP2;P2;SDS_P1;SDS_P2;PMS_P1;PMS_P2;Temp;Humidity;BMP_temperature;BMP_pressure;BME280_temperature;BME280_humidity;BME280_pressure;Samples;Min_cycle;Max_cycle;Signal;HPM_P1;HPM_P2
2022/05/28 00:01:35;;;;;;;10.52;3.08;;;14.40;99.90;;;;;;5017927;28;20057;-66
2022/05/28 00:04:04;;;;;;;11.40;3.15;;;14.20;99.90;;;;;;5000831;28;20107;-66
2022/05/28 00:06:32;;;;;;;8.25;2.67;;;14.10;99.90;;;;;;5017698;28;20050;-66
2022/05/28 00:08:59;;;;;;;14.00;3.28;;;13.90;99.90;;;;;;5017100;28;20188;-66
2022/05/28 00:11:32;;;;;;;8.38;2.97;;;14.00;99.90;;;;;;5017744;28;20068;-66
2022/05/28 00:13:58;;;;;;;10.57;2.85;;;14.10;99.90;;;;;;5016948;28;20030;-65
2022/05/28 00:16:24;;;;;;;9.35;3.20;;;14.00;99.90;;;;;;5017142;28;20038;-65
2022/05/28 00:18:54;;;;;;;10.32;3.35;;;13.80;99.90;;;;;;5016818;28;20076;-65
2022/05/28 00:21:21;;;;;;;10.38;3.00;;;13.90;99.90;;;;;;5016782;28;20465;-65
2022/05/28 00:23:47;;;;;;;11.75;3.30;;;13.80;99.90;;;;;;5016611;28;20056;-66
2022/05/28 00:26:14;;;;;;;15.68;3.75;;;13.80;99.90;;;;;;5017439;28;20026;-66
2022/05/28 00:28:40;;;;;;;13.38;3.65;;;13.80;99.90;;;;;;5017447;28;20040;-65
2022/05/28 00:31:06;;;;;;;11.30;3.20;;;13.80;99.90;;;;;;5000511;28;20464;-66
2022/05/28 00:33:32;;;;;;;10.43;2.97;;;13.80;99.90;;;;;;5017614;28;20124;-65
2022/05/28 00:35:59;;;;;;;9.18;2.92;;;13.70;99.90;;;;;;5016542;28;20049;-65
2022/05/28 00:38:25;;;;;;;16.58;4.05;;;13.60;99.90;;;;;;5016582;28;20051;-65
2022/05/28 00:40:54;;;;;;;13.45;4.22;;;13.50;99.90;;;;;;5017554;28;20052;-65
2022/05/28 00:43:20;;;;;;;15.27;3.45;;;13.50;99.90;;;;;;5017452;28;20038;-65
2022/05/28 00:45:50;;;;;;;11.48;3.58;;;13.40;99.90;;;;;;5016427;28;20033;-66
2022/05/28 00:48:27;;;;;;;9.48;3.22;;;13.40;99.90;;;;;;5016481;28;20149;-65
2022/05/28 00:50:53;;;;;;;11.65;2.90;;;13.50;99.90;;;;;;5017414;28;20036;-65
2022/05/28 00:53:19;;;;;;;13.38;3.35;;;13.60;99.90;;;;;;5016770;28;20026;-65
2022/05/28 00:55:45;;;;;;;13.77;3.47;;;13.50;99.90;;;;;;5017291;28;20096;-66
2022/05/28 00:58:11;;;;;;;12.07;3.70;;;13.50;99.90;;;;;;5017098;28;20096;-65
2022/05/28 01:00:38;;;;;;;12.32;3.55;;;13.50;99.90;;;;;;5016598;28;20064;-65
2022/05/28 01:03:22;;;;;;;13.95;3.72;;;13.30;99.90;;;;;;4999922;28;20120;-65
2022/05/28 01:05:56;;;;;;;14.48;4.03;;;13.20;99.90;;;;;;5016334;28;20041;-65
2022/05/28 01:08:32;;;;;;;10.50;3.38;;;13.20;99.90;;;;;;5016555;28;20038;-65
2022/05/28 01:11:33;;;;;;;11.32;3.50;;;13.20;99.90;;;;;;5016586;28;20034;-64
2022/05/28 01:14:18;;;;;;;12.40;3.75;;;13.20;99.90;;;;;;5017065;28;20064;-66
2022/05/28 01:17:16;;;;;;;9.93;3.22;;;13.30;99.90;;;;;;5016192;28;20419;-66
2022/05/28 01:20:22;;;;;;;9.32;3.00;;;13.30;99.90;;;;;;5005476;28;20137;-66
2022/05/28 01:23:09;;;;;;;16.88;3.65;;;13.40;99.90;;;;;;5013855;28;20096;-65
2022/05/28 01:26:07;;;;;;;13.18;3.60;;;13.30;99.90;;;;;;5017409;28;20404;-66
2022/05/28 01:28:43;;;;;;;12.90;3.78;;;13.10;99.90;;;;;;5020432;28;20424;-65
2022/05/28 01:31:11;;;;;;;14.85;3.88;;;13.20;99.90;;;;;;5020809;28;20045;-65
2022/05/28 01:33:41;;;;;;;12.40;3.53;;;13.10;99.90;;;;;;5019868;28;20324;-66
2022/05/28 01:36:10;;;;;;;17.85;3.85;;;13.00;99.90;;;;;;5003708;28;20034;-66
2022/05/28 01:38:38;;;;;;;9.60;3.70;;;12.90;99.90;;;;;;5020079;28;20036;-66
2022/05/28 01:41:07;;;;;;;13.55;4.20;;;12.90;99.90;;;;;;5020884;28;20285;-66
2022/05/28 01:43:40;;;;;;;14.52;4.13;;;12.80;99.90;;;;;;5020650;28;20029;-66
2022/05/28 01:46:07;;;;;;;12.15;3.60;;;12.70;99.90;;;;;;5019694;28;20337;-66
2022/05/28 01:48:34;;;;;;;13.27;3.75;;;12.60;99.90;;;;;;5019617;28;20342;-66
2022/05/28 01:51:02;;;;;;;12.05;4.00;;;12.60;99.90;;;;;;5019521;28;20056;-66
2022/05/28 01:56:13;;;;;;;14.10;3.85;;;12.60;99.90;;;;;;5020704;28;20305;-65
2022/05/28 01:58:39;;;;;;;14.13;4.50;;;12.70;99.90;;;;;;5020093;28;20097;-65
2022/05/28 02:01:08;;;;;;;16.25;4.30;;;12.70;99.90;;;;;;5019158;28;20046;-66
2022/05/28 02:03:37;;;;;;;14.43;3.80;;;12.70;99.90;;;;;;5002881;28;20046;-66
2022/05/28 02:06:04;;;;;;;13.65;4.40;;;12.60;99.90;;;;;;5019431;28;20046;-66
2022/05/28 02:08:34;;;;;;;16.08;4.13;;;12.50;99.90;;;;;;5019798;28;20116;-66
2022/05/28 02:11:11;;;;;;;17.40;4.00;;;12.50;99.90;;;;;;5019927;28;20329;-66
2022/05/28 02:14:10;;;;;;;14.45;4.40;;;12.30;99.90;;;;;;5019942;28;20038;-67
2022/05/28 02:17:08;;;;;;;12.98;3.63;;;12.20;99.90;;;;;;5004185;28;20071;-66
2022/05/28 02:19:45;;;;;;;11.20;3.63;;;12.20;99.90;;;;;;5019749;28;20099;-67
2022/05/28 02:22:26;;;;;;;13.18;4.18;;;12.30;99.90;;;;;;5019764;28;20065;-67
2022/05/28 02:24:58;;;;;;;14.70;4.45;;;12.30;99.90;;;;;;5019216;28;20329;-67
2022/05/28 02:27:26;;;;;;;12.17;4.00;;;12.30;99.90;;;;;;5018903;28;20132;-67
2022/05/28 02:29:52;;;;;;;13.05;3.83;;;12.30;99.90;;;;;;5019551;28;20049;-67
2022/05/28 02:32:24;;;;;;;12.10;4.43;;;12.30;99.90;;;;;;5018918;28;20069;-67
2022/05/28 02:34:50;;;;;;;11.90;4.45;;;12.40;99.90;;;;;;5018914;28;20078;-67
2022/05/28 02:37:20;;;;;;;12.70;4.35;;;12.20;99.90;;;;;;4986119;28;20038;-66
2022/05/28 02:39:46;;;;;;;15.63;4.30;;;12.30;99.90;;;;;;5018681;28;20030;-66
2022/05/28 02:42:12;;;;;;;11.93;4.47;;;12.30;99.90;;;;;;5019326;28;20311;-67
2022/05/28 02:44:38;;;;;;;10.23;4.30;;;12.20;99.90;;;;;;5019367;28;20084;-67
2022/05/28 02:47:04;;;;;;;12.88;4.18;;;12.10;99.90;;;;;;5019284;28;20069;-66
2022/05/28 02:49:30;;;;;;;17.52;5.07;;;12.00;99.90;;;;;;5019194;28;20036;-66
2022/05/28 02:51:56;;;;;;;13.77;4.63;;;12.10;99.90;;;;;;5019450;28;20413;-66
2022/05/28 02:54:22;;;;;;;12.27;4.25;;;12.10;99.90;;;;;;5019179;28;20025;-66
2022/05/28 02:56:49;;;;;;;11.00;4.15;;;12.10;99.90;;;;;;5019121;28;20042;-67
2022/05/28 02:59:15;;;;;;;14.77;4.13;;;12.10;99.90;;;;;;5018276;28;20042;-67
2022/05/28 03:01:41;;;;;;;16.50;4.22;;;12.10;99.90;;;;;;5017950;28;20050;-67
2022/05/28 03:04:08;;;;;;;16.30;4.97;;;12.10;99.90;;;;;;5018240;28;20394;-67
2022/05/28 03:06:37;;;;;;;12.27;4.15;;;12.20;99.90;;;;;;5018965;28;20092;-67
2022/05/28 03:09:06;;;;;;;16.15;4.65;;;12.20;99.90;;;;;;5018319;28;20022;-67
2022/05/28 03:11:32;;;;;;;12.27;3.97;;;12.30;99.90;;;;;;5018863;28;20026;-68
2022/05/28 03:13:58;;;;;;;14.55;3.80;;;12.30;99.90;;;;;;5018696;28;20033;-66
2022/05/28 03:16:24;;;;;;;13.02;3.78;;;12.30;99.90;;;;;;5002349;28;20053;-66
2022/05/28 03:18:50;;;;;;;14.38;4.00;;;12.40;99.90;;;;;;5018598;28;20041;-66
2022/05/28 03:21:15;;;;;;;14.48;4.15;;;12.40;99.90;;;;;;5001513;28;20402;-66
2022/05/28 03:23:41;;;;;;;15.45;4.10;;;12.40;99.90;;;;;;5018769;28;20030;-66
2022/05/28 03:26:16;;;;;;;12.95;4.05;;;12.30;99.90;;;;;;5018331;28;20091;-65
2022/05/28 03:28:45;;;;;;;12.52;3.80;;;12.30;99.90;;;;;;5017795;28;20314;-65
2022/05/28 03:31:11;;;;;;;9.75;3.35;;;12.40;99.90;;;;;;5018826;28;20032;-66
2022/05/28 03:33:37;;;;;;;11.85;3.55;;;12.40;99.90;;;;;;5017706;28;20393;-66
2022/05/28 03:36:04;;;;;;;15.93;3.70;;;12.40;99.90;;;;;;5017691;28;20030;-66
2022/05/28 03:38:31;;;;;;;12.23;3.85;;;12.50;99.90;;;;;;5017641;28;20041;-66
2022/05/28 03:40:58;;;;;;;9.73;3.33;;;12.40;99.90;;;;;;5018229;28;20032;-66
2022/05/28 03:43:25;;;;;;;12.45;3.33;;;12.40;99.90;;;;;;5017427;28;20049;-66
2022/05/28 03:45:51;;;;;;;14.40;3.72;;;12.50;99.90;;;;;;5017956;28;20282;-65
2022/05/28 03:48:17;;;;;;;14.32;4.28;;;12.50;99.90;;;;;;5017133;28;20033;-65
2022/05/28 03:50:43;;;;;;;11.57;3.60;;;12.60;99.90;;;;;;5017411;28;20030;-65
2022/05/28 03:53:09;;;;;;;14.55;3.50;;;12.70;99.90;;;;;;5017150;28;20404;-64
2022/05/28 03:55:37;;;;;;;10.07;3.47;;;12.70;99.90;;;;;;5017683;28;20053;-67
2022/05/28 03:58:03;;;;;;;15.50;3.75;;;12.70;99.90;;;;;;5017185;28;20045;-66
2022/05/28 04:00:30;;;;;;;14.68;4.18;;;12.70;99.90;;;;;;5017575;28;20060;-65
2022/05/28 04:02:57;;;;;;;7.78;3.35;;;12.80;99.90;;;;;;5017801;28;20428;-66
2022/05/28 04:05:23;;;;;;;9.60;3.38;;;12.90;99.90;;;;;;5017003;28;20096;-67
2022/05/28 04:07:49;;;;;;;11.25;3.45;;;12.80;99.90;;;;;;5017861;28;20030;-66
2022/05/28 04:10:15;;;;;;;12.63;3.50;;;12.80;99.90;;;;;;5017631;28;20406;-66
2022/05/28 04:12:41;;;;;;;7.15;2.85;;;12.70;99.90;;;;;;5016957;28;20041;-66
2022/05/28 04:15:08;;;;;;;9.48;3.08;;;12.70;99.90;;;;;;5016898;28;20294;-66
2022/05/28 04:17:34;;;;;;;10.27;3.08;;;12.70;99.90;;;;;;5017678;28;20103;-68
2022/05/28 04:20:00;;;;;;;10.23;3.10;;;12.80;99.90;;;;;;5018002;28;20310;-66
2022/05/28 04:22:26;;;;;;;9.40;3.03;;;12.70;99.90;;;;;;5017467;28;20121;-65
2022/05/28 04:24:52;;;;;;;10.18;2.90;;;12.80;99.90;;;;;;5000381;28;20365;-66
2022/05/28 04:27:18;;;;;;;9.48;2.90;;;12.80;99.90;;;;;;5016469;28;20042;-66
2022/05/28 04:29:43;;;;;;;6.80;2.30;;;12.70;99.90;;;;;;5017475;28;20397;-66
2022/05/28 04:32:09;;;;;;;11.27;2.97;;;12.80;99.90;;;;;;5017385;28;20026;-66
2022/05/28 04:34:35;;;;;;;7.85;2.38;;;12.80;99.90;;;;;;5016695;28;20049;-67
2022/05/28 04:37:01;;;;;;;10.02;2.72;;;12.80;99.90;;;;;;5016539;28;20306;-66
2022/05/28 04:39:26;;;;;;;15.43;3.03;;;12.90;99.90;;;;;;5000345;28;20099;-66
2022/05/28 04:41:52;;;;;;;8.38;2.80;;;12.90;99.90;;;;;;5016641;28;20037;-63
2022/05/28 04:44:18;;;;;;;9.80;3.08;;;13.00;99.90;;;;;;5016579;28;20046;-66
2022/05/28 04:46:44;;;;;;;8.40;2.60;;;13.00;99.90;;;;;;5016382;28;20043;-66
2022/05/28 04:49:09;;;;;;;8.93;2.78;;;12.90;99.90;;;;;;5016522;28;20053;-66
2022/05/28 04:51:35;;;;;;;11.55;2.90;;;12.90;99.90;;;;;;5016420;28;20053;-66
2022/05/28 04:54:01;;;;;;;9.68;3.15;;;13.00;99.90;;;;;;5016323;28;20056;-66
2022/05/28 04:56:27;;;;;;;12.57;3.20;;;13.00;99.90;;;;;;5017069;28;20122;-66
2022/05/28 04:58:53;;;;;;;7.78;2.42;;;13.00;99.90;;;;;;5016273;28;20037;-65
2022/05/28 05:01:21;;;;;;;11.50;3.33;;;13.10;99.90;;;;;;5018674;28;20058;-64
2022/05/28 05:03:47;;;;;;;10.30;2.85;;;13.20;99.90;;;;;;5021535;28;20297;-65
2022/05/28 05:06:12;;;;;;;15.02;3.25;;;13.40;99.90;;;;;;5020391;28;20128;-62
2022/05/28 05:08:38;;;;;;;14.40;3.33;;;13.40;99.90;;;;;;5003904;28;20330;-61
2022/05/28 05:11:04;;;;;;;10.95;2.85;;;13.50;99.90;;;;;;5020646;28;20040;-64
2022/05/28 05:13:30;;;;;;;10.00;2.60;;;13.50;99.90;;;;;;5020304;28;20030;-66
2022/05/28 05:15:56;;;;;;;9.73;2.70;;;13.30;99.90;;;;;;5020847;28;20038;-66
2022/05/28 05:18:22;;;;;;;8.85;2.83;;;13.30;99.90;;;;;;5021776;28;20394;-66
2022/05/28 05:20:48;;;;;;;7.10;2.25;;;13.60;99.90;;;;;;5020929;28;20060;-66
2022/05/28 05:23:14;;;;;;;9.10;2.63;;;13.60;99.90;;;;;;5003663;28;20034;-62
2022/05/28 05:25:40;;;;;;;9.05;2.22;;;13.80;99.90;;;;;;5020810;28;20048;-63
2022/05/28 05:28:07;;;;;;;9.27;2.67;;;13.90;99.90;;;;;;5019930;28;20306;-64
2022/05/28 05:30:33;;;;;;;7.78;2.50;;;14.00;99.90;;;;;;5019960;28;20057;-64
2022/05/28 05:32:58;;;;;;;11.30;2.83;;;14.00;99.90;;;;;;5003651;28;20069;-65
2022/05/28 05:35:24;;;;;;;10.82;2.60;;;14.10;99.90;;;;;;5019785;28;20034;-65
2022/05/28 05:37:50;;;;;;;11.30;2.50;;;14.20;99.90;;;;;;5019851;28;20417;-65
2022/05/28 05:40:16;;;;;;;9.25;2.72;;;14.10;99.90;;;;;;5003371;28;20038;-61
2022/05/28 05:42:42;;;;;;;10.60;2.85;;;14.20;99.90;;;;;;5019959;28;20029;-66
2022/05/28 05:45:08;;;;;;;10.05;3.25;;;14.30;99.90;;;;;;5020364;28;20113;-65
2022/05/28 05:47:34;;;;;;;9.35;2.65;;;14.40;99.90;;;;;;5020296;28;20033;-66
2022/05/28 05:50:00;;;;;;;4.88;1.70;;;14.40;99.90;;;;;;5020223;28;20030;-65
2022/05/28 05:52:26;;;;;;;9.15;2.38;;;14.50;99.90;;;;;;5019573;28;20099;-63
2022/05/28 05:54:53;;;;;;;8.30;2.22;;;14.70;99.90;;;;;;5003274;28;20034;-66
2022/05/28 05:57:19;;;;;;;7.68;1.85;;;14.80;99.90;;;;;;5020173;28;20033;-65
2022/05/28 05:59:45;;;;;;;6.60;2.10;;;15.00;99.90;;;;;;5020051;28;20168;-66
2022/05/28 06:02:12;;;;;;;7.95;2.00;;;15.20;99.90;;;;;;4986507;28;20057;-64
2022/05/28 06:04:38;;;;;;;10.30;1.90;;;15.50;99.90;;;;;;5002999;28;20025;-63
2022/05/28 06:07:06;;;;;;;6.95;1.02;;;15.70;99.90;;;;;;5019192;28;20038;-66
2022/05/28 06:09:32;;;;;;;8.73;1.08;;;15.70;99.90;;;;;;5002813;28;20045;-65
2022/05/28 06:11:58;;;;;;;7.68;1.00;;;15.80;99.90;;;;;;5018178;28;20038;-65
2022/05/28 06:14:24;;;;;;;7.15;1.05;;;16.10;99.90;;;;;;4986682;28;20306;-65
2022/05/28 06:16:50;;;;;;;4.45;1.00;;;16.30;99.90;;;;;;5018962;28;20045;-64
2022/05/28 06:19:16;;;;;;;6.72;1.00;;;16.30;99.90;;;;;;5018987;28;20514;-65
2022/05/28 06:21:42;;;;;;;6.43;1.05;;;16.40;99.90;;;;;;5019657;28;20117;-65
2022/05/28 06:24:08;;;;;;;4.90;0.90;;;16.30;99.90;;;;;;5019676;28;20045;-65
2022/05/28 06:26:34;;;;;;;5.50;1.13;;;16.40;99.90;;;;;;5019510;28;20049;-64
2022/05/28 06:29:00;;;;;;;6.07;0.88;;;16.40;99.90;;;;;;5002578;28;20130;-64
2022/05/28 06:31:26;;;;;;;7.53;0.80;;;16.40;99.90;;;;;;5019452;28;20120;-64
2022/05/28 06:33:52;;;;;;;5.60;0.85;;;16.40;99.90;;;;;;5019484;28;20034;-63
2022/05/28 06:36:18;;;;;;;4.57;0.93;;;16.40;99.90;;;;;;5019428;28;20057;-62
2022/05/28 06:38:45;;;;;;;3.55;0.57;;;16.40;99.90;;;;;;5019478;28;20057;-64
2022/05/28 06:41:12;;;;;;;5.22;0.90;;;16.30;99.90;;;;;;5002600;28;20041;-64
2022/05/28 06:43:37;;;;;;;5.22;0.85;;;16.10;99.90;;;;;;5019403;28;20301;-65
2022/05/28 06:46:05;;;;;;;4.03;0.73;;;16.10;99.90;;;;;;5019197;28;20025;-66
2022/05/28 06:48:31;;;;;;;6.32;0.80;;;16.20;99.90;;;;;;5018443;28;20133;-63
2022/05/28 06:51:04;;;;;;;2.50;0.70;;;16.40;99.90;;;;;;5002129;28;20029;-65
2022/05/28 06:53:33;;;;;;;9.27;1.10;;;16.40;99.90;;;;;;5019119;28;20088;-65
2022/05/28 06:55:59;;;;;;;4.60;0.70;;;16.60;99.90;;;;;;5019006;28;20394;-65
2022/05/28 06:58:25;;;;;;;4.93;0.80;;;16.60;99.90;;;;;;5019035;28;20053;-66
2022/05/28 07:00:51;;;;;;;3.47;0.90;;;16.90;99.90;;;;;;5018100;28;20374;-65
2022/05/28 07:03:19;;;;;;;5.30;1.00;;;16.90;99.90;;;;;;5018204;28;20046;-63
2022/05/28 07:05:45;;;;;;;3.97;0.77;;;16.80;99.90;;;;;;5018116;28;20034;-65
2022/05/28 07:08:11;;;;;;;3.55;0.70;;;16.80;99.90;;;;;;5018772;28;20034;-66
2022/05/28 07:10:43;;;;;;;5.38;0.80;;;16.70;99.90;;;;;;5001906;28;20038;-65
2022/05/28 07:13:10;;;;;;;5.57;0.80;;;16.70;99.90;;;;;;5018039;28;20034;-65
2022/05/28 07:15:36;;;;;;;3.65;0.77;;;16.60;99.90;;;;;;5001869;28;20046;-66
2022/05/28 07:18:03;;;;;;;3.42;0.60;;;16.60;99.90;;;;;;5001675;28;20149;-65
2022/05/28 07:20:28;;;;;;;5.40;1.00;;;16.70;99.90;;;;;;5017878;28;20073;-65
2022/05/28 07:22:54;;;;;;;4.15;0.93;;;16.80;99.90;;;;;;5018915;28;20484;-64
2022/05/28 07:25:20;;;;;;;3.80;0.80;;;16.90;99.90;;;;;;5001464;28;20088;-65
2022/05/28 07:27:46;;;;;;;4.63;0.70;;;17.00;99.90;;;;;;5017732;28;20105;-63
2022/05/28 07:30:12;;;;;;;2.83;0.75;;;17.10;99.90;;;;;;5018287;28;20117;-61
2022/05/28 07:32:38;;;;;;;3.03;0.70;;;17.10;99.90;;;;;;5001378;28;20104;-64
2022/05/28 07:35:05;;;;;;;5.20;0.63;;;17.10;99.90;;;;;;5017602;28;20322;-62
2022/05/28 07:37:31;;;;;;;6.70;0.80;;;17.00;99.90;;;;;;5017498;28;20030;-62
2022/05/28 07:39:58;;;;;;;4.22;1.00;;;17.20;99.90;;;;;;5019392;28;20033;-64
2022/05/28 07:42:26;;;;;;;5.03;0.57;;;17.30;99.90;;;;;;5017399;28;20111;-62
2022/05/28 07:44:51;;;;;;;3.63;1.00;;;17.40;99.90;;;;;;5018097;28;20302;-63
2022/05/28 07:47:18;;;;;;;4.65;0.90;;;17.40;99.90;;;;;;5017921;28;20037;-65
2022/05/28 07:49:44;;;;;;;5.07;0.68;;;17.40;99.90;;;;;;5001637;28;20038;-63
2022/05/28 07:52:10;;;;;;;4.43;0.85;;;17.30;99.90;;;;;;5017992;28;20124;-65
2022/05/28 07:54:36;;;;;;;3.80;0.80;;;17.30;99.90;;;;;;5017232;28;20417;-65
2022/05/28 07:57:02;;;;;;;4.20;0.95;;;17.30;99.90;;;;;;5017977;28;20030;-65
2022/05/28 07:59:29;;;;;;;5.75;1.08;;;17.30;99.90;;;;;;5017264;28;20033;-63
2022/05/28 08:01:55;;;;;;;2.40;0.60;;;17.50;99.90;;;;;;5017705;28;20475;-64
2022/05/28 08:04:21;;;;;;;3.45;0.70;;;17.50;99.90;;;;;;5017516;28;20034;-65
2022/05/28 08:06:47;;;;;;;3.20;0.55;;;17.60;99.90;;;;;;5000688;28;20042;-63
2022/05/28 08:09:13;;;;;;;6.10;0.77;;;17.60;99.90;;;;;;5017811;28;20378;-63
2022/05/28 08:11:39;;;;;;;2.40;0.52;;;17.60;99.90;;;;;;5016964;28;20386;-64
2022/05/28 08:14:06;;;;;;;3.15;0.50;;;17.60;99.90;;;;;;5018277;28;20029;-62
2022/05/28 08:16:32;;;;;;;3.88;0.55;;;17.60;99.90;;;;;;5016918;28;20037;-64
2022/05/28 08:18:58;;;;;;;3.03;0.50;;;17.60;99.90;;;;;;5000703;28;20038;-63
2022/05/28 08:24:08;;;;;;;3.75;0.60;;;17.80;99.90;;;;;;5017756;28;20048;-64
2022/05/28 08:26:35;;;;;;;1.88;0.60;;;18.10;99.90;;;;;;5017445;28;20368;-64
2022/05/28 08:29:02;;;;;;;1.45;0.50;;;18.30;99.90;;;;;;5016806;28;20037;-65
2022/05/28 08:31:29;;;;;;;3.28;0.70;;;18.30;99.90;;;;;;5016659;28;20030;-64
2022/05/28 08:33:56;;;;;;;2.47;0.50;;;18.40;99.90;;;;;;5016945;28;20041;-62
2022/05/28 08:36:22;;;;;;;5.97;1.15;;;18.60;99.90;;;;;;5016997;28;20041;-66
2022/05/28 08:38:48;;;;;;;3.92;0.50;;;18.30;99.90;;;;;;5000402;28;20120;-63
2022/05/28 08:41:19;;;;;;;4.65;0.70;;;18.00;99.90;;;;;;5017214;28;20061;-62
2022/05/28 08:44:26;;;;;;;3.38;0.70;;;17.70;99.90;;;;;;5017245;28;20036;-62
2022/05/28 08:47:16;;;;;;;3.08;0.60;;;17.40;99.90;;;;;;5016424;28;20076;-62
2022/05/28 08:49:43;;;;;;;2.95;0.68;;;17.40;99.90;;;;;;5017553;28;20378;-63
2022/05/28 08:52:14;;;;;;;4.75;0.63;;;17.60;99.90;;;;;;5017154;28;20041;-61
2022/05/28 08:54:59;;;;;;;3.40;0.60;;;18.00;99.90;;;;;;5016513;28;20065;-62
2022/05/28 08:57:57;;;;;;;3.40;0.60;;;18.20;99.90;;;;;;5017192;28;20071;-63
2022/05/28 09:00:43;;;;;;;3.17;0.45;;;18.40;99.90;;;;;;5016321;28;20287;-66
2022/05/28 09:03:11;;;;;;;3.67;0.80;;;18.70;99.90;;;;;;5016179;28;20030;-62
2022/05/28 09:05:57;;;;;;;2.40;0.60;;;18.50;99.90;;;;;;5016763;28;20036;-62
2022/05/28 09:08:31;;;;;;;3.47;0.65;;;18.40;99.90;;;;;;5016987;28;20041;-63
2022/05/28 09:11:09;;;;;;;2.90;0.60;;;18.30;99.90;;;;;;5016965;28;20389;-66
2022/05/28 09:13:40;;;;;;;1.83;0.52;;;18.10;99.90;;;;;;5016206;28;20448;-62
2022/05/28 09:16:11;;;;;;;3.08;0.40;;;18.10;99.90;;;;;;5016142;28;20037;-62
2022/05/28 09:18:41;;;;;;;5.00;0.43;;;18.00;99.90;;;;;;5017035;28;20038;-62
2022/05/28 09:21:14;;;;;;;1.25;0.50;;;17.90;99.90;;;;;;5016903;28;20030;-63
2022/05/28 09:23:45;;;;;;;2.45;0.70;;;17.80;99.90;;;;;;5016916;28;20080;-63
2022/05/28 09:26:12;;;;;;;5.00;1.00;;;18.00;99.90;;;;;;5017220;28;20030;-63
2022/05/28 09:29:02;;;;;;;3.45;0.85;;;18.10;99.90;;;;;;5016061;28;20034;-63
2022/05/28 09:31:43;;;;;;;2.28;0.50;;;18.00;99.90;;;;;;5016775;28;20297;-63
2022/05/28 09:34:40;;;;;;;4.80;0.90;;;17.90;99.90;;;;;;5016814;28;20291;-62
2022/05/28 09:37:35;;;;;;;6.57;0.93;;;17.90;99.90;;;;;;5016641;28;20077;-65
2022/05/28 09:40:18;;;;;;;4.03;0.70;;;17.80;99.90;;;;;;5017202;28;20030;-65
2022/05/28 09:43:12;;;;;;;5.22;0.90;;;17.70;99.90;;;;;;4999687;28;20030;-62
2022/05/28 09:46:15;;;;;;;5.35;0.90;;;18.00;99.90;;;;;;5016623;28;20095;-62
2022/05/28 09:48:42;;;;;;;5.15;1.10;;;18.30;99.90;;;;;;5019506;28;20109;-63
2022/05/28 09:51:26;;;;;;;5.00;1.00;;;18.60;99.90;;;;;;5020103;28;20044;-65
2022/05/28 09:54:20;;;;;;;3.40;0.68;;;18.60;99.90;;;;;;5020326;28;20057;-63
2022/05/28 09:57:26;;;;;;;2.40;0.50;;;18.40;99.90;;;;;;5020339;28;20409;-62
2022/05/28 10:00:00;;;;;;;3.85;0.70;;;18.20;99.90;;;;;;5008974;28;20046;-63
2022/05/28 10:02:33;;;;;;;3.85;0.77;;;18.40;99.90;;;;;;5020178;28;20081;-64
2022/05/28 10:05:09;;;;;;;4.55;0.93;;;18.30;99.90;;;;;;5020156;28;20119;-63
2022/05/28 10:07:40;;;;;;;2.05;0.60;;;18.30;99.90;;;;;;5019953;28;20397;-64
2022/05/28 10:10:29;;;;;;;3.67;0.87;;;18.40;99.90;;;;;;5020026;28;20030;-63
2022/05/28 10:13:15;;;;;;;1.77;0.60;;;18.40;99.90;;;;;;5019326;28;20113;-63
2022/05/28 10:15:49;;;;;;;2.80;0.80;;;18.40;99.90;;;;;;5019098;28;20026;-64
2022/05/28 10:18:36;;;;;;;1.30;0.40;;;18.40;99.90;;;;;;5019874;28;20401;-62
2022/05/28 10:21:15;;;;;;;5.07;0.95;;;18.70;99.90;;;;;;5020330;28;20113;-63
2022/05/28 10:23:49;;;;;;;4.15;0.85;;;19.00;99.90;;;;;;5020610;28;20428;-63
2022/05/28 10:26:19;;;;;;;2.35;0.68;;;19.20;99.90;;;;;;5019588;28;20034;-64
2022/05/28 10:28:51;;;;;;;5.15;0.95;;;19.20;99.90;;;;;;5019670;28;20389;-66
2022/05/28 10:31:28;;;;;;;3.95;0.88;;;18.90;99.90;;;;;;5019573;28;20069;-64
2022/05/28 10:33:56;;;;;;;4.82;0.80;;;18.70;99.90;;;;;;5018787;28;20068;-65
2022/05/28 10:36:31;;;;;;;6.97;0.95;;;18.40;99.90;;;;;;5019480;28;20402;-65
2022/05/28 10:39:06;;;;;;;3.08;1.00;;;18.50;99.90;;;;;;5019470;28;20045;-67
2022/05/28 10:41:34;;;;;;;4.57;1.00;;;18.90;99.90;;;;;;5019346;28;20026;-63
2022/05/28 10:43:59;;;;;;;4.57;0.85;;;18.60;99.90;;;;;;5019973;28;20088;-66
2022/05/28 10:46:43;;;;;;;4.47;0.77;;;18.50;99.90;;;;;;5018455;28;20072;-66
2022/05/28 10:49:28;;;;;;;3.97;0.77;;;18.60;99.90;;;;;;5019238;28;20022;-64
2022/05/28 10:52:03;;;;;;;5.00;1.23;;;18.70;99.90;;;;;;5018358;28;20034;-65
2022/05/28 10:54:49;;;;;;;3.30;0.80;;;18.90;99.90;;;;;;5019228;28;20029;-65
2022/05/28 10:57:52;;;;;;;7.30;1.20;;;19.00;99.90;;;;;;5018359;28;20033;-64
2022/05/28 11:00:42;;;;;;;6.38;0.73;;;18.90;99.90;;;;;;5018976;28;20034;-62
2022/05/28 11:03:40;;;;;;;4.90;0.73;;;19.60;99.90;;;;;;5018219;28;20049;-62
2022/05/28 11:06:33;;;;;;;3.75;0.50;;;20.80;99.90;;;;;;5010807;28;20382;-63
2022/05/28 11:09:17;;;;;;;;;;;21.90;99.90;;;;;;5019366;28;20444;-65
2022/05/28 11:11:52;;;;;;;5.82;0.90;;;22.60;99.90;;;;;;5018395;28;19949;-61
2022/05/28 11:15:07;;;;;;;3.97;0.75;;;22.30;99.90;;;;;;5018811;28;20030;-62
2022/05/28 11:18:03;;;;;;;3.40;0.70;;;23.70;99.90;;;;;;5018813;28;20069;-62
2022/05/28 11:20:47;;;;;;;5.18;0.82;;;24.50;95.80;;;;;;5017923;28;20120;-62
2022/05/28 11:23:39;;;;;;;2.03;0.77;;;24.40;94.60;;;;;;5018615;28;20030;-64
2022/05/28 11:26:23;;;;;;;2.85;0.70;;;24.70;93.60;;;;;;5018453;28;20030;-62
2022/05/28 11:29:37;;;;;;;2.60;0.77;;;25.40;94.00;;;;;;5019054;28;20368;-63
2022/05/28 11:32:16;;;;;;;3.30;0.75;;;26.60;92.90;;;;;;4996359;28;20034;-63
2022/05/28 11:34:54;;;;;;;3.53;0.85;;;26.50;90.50;;;;;;5018988;28;20103;-64
2022/05/28 11:37:40;;;;;;;3.85;1.05;;;25.60;91.60;;;;;;5017607;28;20029;-60
2022/05/28 11:40:14;;;;;;;5.90;0.98;;;24.80;92.10;;;;;;5018263;28;20048;-62
2022/05/28 11:42:48;;;;;;;6.30;1.02;;;24.20;92.80;;;;;;5001255;28;20401;-63
2022/05/28 11:45:21;;;;;;;4.57;0.98;;;24.30;91.30;;;;;;5018424;28;20034;-61
2022/05/28 11:47:57;;;;;;;5.60;1.00;;;24.10;92.70;;;;;;5018066;28;20033;-63
2022/05/28 11:53:52;;;;;;;3.75;0.98;;;24.90;89.60;;;;;;5017407;28;20034;-64
2022/05/28 11:56:22;;;;;;;1.95;0.68;;;26.10;83.50;;;;;;5018010;28;20097;-63
2022/05/28 11:58:52;;;;;;;3.35;0.80;;;27.20;79.80;;;;;;5017833;28;20100;-62
2022/05/28 12:01:22;;;;;;;2.05;0.70;;;27.30;75.80;;;;;;5017729;28;20050;-66
2022/05/28 12:03:48;;;;;;;2.85;0.75;;;27.50;74.00;;;;;;5017922;28;20042;-65
2022/05/28 12:06:29;;;;;;;3.55;0.70;;;27.30;69.80;;;;;;5017690;28;20176;-63
2022/05/28 12:08:58;;;;;;;5.20;0.70;;;27.50;73.50;;;;;;5017667;28;20021;-62
2022/05/28 12:11:29;;;;;;;3.15;0.60;;;27.80;66.60;;;;;;5017496;28;20037;-63
2022/05/28 12:13:59;;;;;;;1.63;0.50;;;27.20;66.20;;;;;;5017683;28;20034;-65
2022/05/28 12:16:31;;;;;;;4.97;0.70;;;26.60;67.40;;;;;;5017681;28;20264;-64
2022/05/28 12:19:15;;;;;;;6.18;0.88;;;27.10;68.50;;;;;;5017403;28;20037;-65
2022/05/28 12:21:43;;;;;;;3.53;0.60;;;26.50;68.10;;;;;;5017428;28;20033;-65
2022/05/28 12:24:24;;;;;;;2.72;0.60;;;27.00;67.00;;;;;;5017572;28;20040;-62
2022/05/28 12:29:34;;;;;;;3.40;0.85;;;29.20;64.20;;;;;;5017378;28;20033;-66
2022/05/28 12:32:17;;;;;;;3.55;1.00;;;29.00;60.90;;;;;;5017391;28;20026;-63
2022/05/28 12:35:13;;;;;;;4.45;0.70;;;29.70;61.30;;;;;;5016529;28;20037;-64
2022/05/28 12:37:47;;;;;;;3.28;1.00;;;29.00;61.00;;;;;;5002807;28;20116;-70
2022/05/28 12:40:31;;;;;;;4.32;0.90;;;27.60;64.00;;;;;;5017177;28;20030;-65
2022/05/28 12:43:17;;;;;;;5.60;0.98;;;27.40;64.40;;;;;;5017305;28;20069;-64
2022/05/28 12:45:45;;;;;;;5.03;0.95;;;27.10;65.10;;;;;;5017079;28;20023;-70
2022/05/28 12:48:20;;;;;;;2.70;0.80;;;28.20;63.90;;;;;;5017195;28;20033;-62
2022/05/28 12:51:01;;;;;;;3.75;0.80;;;28.90;61.10;;;;;;5017268;28;20030;-62
2022/05/28 12:53:35;;;;;;;2.65;0.73;;;28.70;59.10;;;;;;5017039;28;20033;-68
2022/05/28 12:56:06;;;;;;;2.88;0.60;;;27.70;59.40;;;;;;5017031;28;20041;-65
2022/05/28 12:58:35;;;;;;;2.80;0.68;;;28.30;60.50;;;;;;5016978;28;20142;-64
2022/05/28 13:01:06;;;;;;;2.03;0.70;;;29.60;58.50;;;;;;5016910;28;20053;-66
2022/05/28 13:03:40;;;;;;;4.97;0.73;;;30.30;56.30;;;;;;5016882;28;20034;-65
2022/05/28 13:06:08;;;;;;;4.30;1.10;;;30.20;55.90;;;;;;5016829;28;20378;-66
2022/05/28 13:08:41;;;;;;;3.50;0.82;;;30.60;55.30;;;;;;5016264;28;20398;-64
2022/05/28 13:11:18;;;;;;;5.68;1.02;;;30.80;53.70;;;;;;4999927;28;20096;-67
2022/05/28 13:14:19;;;;;;;3.83;0.70;;;30.30;52.30;;;;;;5016789;28;20428;-66
2022/05/28 13:17:14;;;;;;;2.67;0.80;;;30.30;53.20;;;;;;5017062;28;20034;-67
2022/05/28 13:19:49;;;;;;;5.63;0.90;;;31.00;54.20;;;;;;4981159;28;20039;-65